Temp: 9.4°C   Baro: 1006.0mb
  Wind: 4.0mph   Dir: SSW (201°)
  Rain: 0.2mm (0.0mm/hr)
  Sun: 0W/m2  Humidity: 92%

Historic data

Bath Spa Weather Station Historical Data
Daily Summary for October 15, 2022 Units:  Both    English   Metric
Daily Weekly Monthly Yearly Custom
  High: Low: Average:
Temperature: 60.5 °F /  15.8 °C 48.6 °F /  9.2 °C 54.8 °F /  12.7 °C
Dew Point: 52.5 °F /  11.4 °C 46.6 °F /  8.1 °C 49.1 °F /  9.5 °C
Humidity: 94% 65% 82%
Wind Speed: 12.8mph /  20.6km/h - 5.2mph /  8.4km/h
Wind Gust: 21mph /  33.8km/h - -
Wind- - SW
Pressure: 29.70 in /  1005.6 hPa 29.59 in /  1001.9 hPa -
Precipitation: 0.02 in /  0.51 mm    
Historical Graphs
 
 
Tabular Data for October 15, 2022
Time Temperature Dew Point Pressure Wind Wind Speed Wind Gust Humidity Rainfall Rate (Hourly) solar
00:09 48.7 °F /  9.3 °C 46.8 °F /  8.2 °C 29.70in /  1005.6hPa West 1.3mph /  2.1km/h 3mph /  4.8km/h 93% 0.00in /  0mm 0 W/m2
00:14 48.7 °F /  9.3 °C 46.8 °F /  8.2 °C 29.70in /  1005.6hPa West 1.2mph /  1.9km/h 4mph /  6.4km/h 93% 0.00in /  0mm 0 W/m2
00:19 48.6 °F /  9.2 °C 46.6 °F /  8.1 °C 29.70in /  1005.6hPa West 1.2mph /  1.9km/h 3mph /  4.8km/h 93% 0.00in /  0mm 0 W/m2
00:24 48.6 °F /  9.2 °C 46.6 °F /  8.1 °C 29.70in /  1005.6hPa West 0.6mph /  1km/h 3mph /  4.8km/h 93% 0.00in /  0mm 0 W/m2
00:29 48.8 °F /  9.3 °C 46.8 °F /  8.2 °C 29.70in /  1005.6hPa West 0.6mph /  1km/h 2mph /  3.2km/h 93% 0.00in /  0mm 0 W/m2
00:34 48.9 °F /  9.4 °C 46.9 °F /  8.3 °C 29.70in /  1005.6hPa Calm     93% 0.00in /  0mm 0 W/m2
00:39 48.9 °F /  9.4 °C 46.9 °F /  8.3 °C 29.70in /  1005.6hPa Calm     93% 0.00in /  0mm 0 W/m2
00:44 48.9 °F /  9.4 °C 46.9 °F /  8.3 °C 29.69in /  1005.3hPa West 0.2mph /  0.3km/h 1mph /  1.6km/h 93% 0.00in /  0mm 0 W/m2
00:49 48.9 °F /  9.4 °C 47 °F /  8.3 °C 29.69in /  1005.3hPa Calm   1mph /  1.6km/h 93.2% 0.00in /  0mm 0 W/m2
00:54 49.1 °F /  9.5 °C 47.5 °F /  8.6 °C 29.69in /  1005.3hPa Calm     94% 0.00in /  0mm 0 W/m2
00:59 49.1 °F /  9.5 °C 47.5 °F /  8.6 °C 29.69in /  1005.3hPa Calm   1mph /  1.6km/h 94% 0.00in /  0mm 0 W/m2
01:04 49.2 °F /  9.6 °C 47.6 °F /  8.7 °C 29.69in /  1005.3hPa West 0.6mph /  1km/h 4mph /  6.4km/h 94% 0.00in /  0mm 0 W/m2
01:09 49.4 °F /  9.7 °C 47.8 °F /  8.8 °C 29.69in /  1005.3hPa West 0.5mph /  0.8km/h 4mph /  6.4km/h 94% 0.00in /  0mm 0 W/m2
01:14 49.9 °F /  9.9 °C 48.3 °F /  9.1 °C 29.69in /  1005.3hPa WSW 0.9mph /  1.4km/h 4mph /  6.4km/h 94% 0.00in /  0mm 0 W/m2
01:19 50.7 °F /  10.4 °C 49.1 °F /  9.5 °C 29.68in /  1005hPa SW 0.9mph /  1.4km/h 4mph /  6.4km/h 94% 0.00in /  0mm 0 W/m2
01:24 51.3 °F /  10.7 °C 49.6 °F /  9.8 °C 29.68in /  1005hPa SW 0.7mph /  1.1km/h 4mph /  6.4km/h 94% 0.00in /  0mm 0 W/m2
01:29 51.3 °F /  10.7 °C 49.6 °F /  9.8 °C 29.68in /  1005hPa Calm   2mph /  3.2km/h 94% 0.00in /  0mm 0 W/m2
01:34 51.3 °F /  10.7 °C 49.6 °F /  9.8 °C 29.68in /  1005hPa SW 1.2mph /  1.9km/h 3mph /  4.8km/h 94% 0.00in /  0mm 0 W/m2
01:39 51.3 °F /  10.7 °C 49.6 °F /  9.8 °C 29.68in /  1005hPa SW 0.9mph /  1.4km/h 4mph /  6.4km/h 94% 0.00in /  0mm 0 W/m2
01:44 51.3 °F /  10.7 °C 49.6 °F /  9.8 °C 29.67in /  1004.6hPa SW 1.6mph /  2.6km/h 3mph /  4.8km/h 94% 0.00in /  0mm 0 W/m2
01:49 51.3 °F /  10.7 °C 49.6 °F /  9.8 °C 29.67in /  1004.6hPa SW 0.2mph /  0.3km/h 2mph /  3.2km/h 94% 0.00in /  0mm 0 W/m2
01:54 51.3 °F /  10.7 °C 49.6 °F /  9.8 °C 29.67in /  1004.6hPa Calm     94% 0.00in /  0mm 0 W/m2
01:59 51.3 °F /  10.7 °C 49.6 °F /  9.8 °C 29.67in /  1004.6hPa Calm     94% 0.00in /  0mm 0 W/m2
02:04 51.2 °F /  10.7 °C 49.5 °F /  9.7 °C 29.67in /  1004.6hPa Calm     94% 0.00in /  0mm 0 W/m2
02:09 51.1 °F /  10.6 °C 49.5 °F /  9.7 °C 29.67in /  1004.6hPa SW 0.4mph /  0.6km/h 2mph /  3.2km/h 94% 0.00in /  0mm 0 W/m2
02:14 51.1 °F /  10.6 °C 49.5 °F /  9.7 °C 29.67in /  1004.6hPa SW 0.4mph /  0.6km/h 2mph /  3.2km/h 94% 0.00in /  0mm 0 W/m2
02:19 51.1 °F /  10.6 °C 49.5 °F /  9.7 °C 29.67in /  1004.6hPa SW 1.4mph /  2.3km/h 2mph /  3.2km/h 94% 0.00in /  0mm 0 W/m2
02:24 51.1 °F /  10.6 °C 49.5 °F /  9.7 °C 29.66in /  1004.3hPa SW 0.6mph /  1km/h 3mph /  4.8km/h 94% 0.00in /  0mm 0 W/m2
02:29 51.3 °F /  10.7 °C 49.6 °F /  9.8 °C 29.66in /  1004.3hPa SW 1mph /  1.6km/h 3mph /  4.8km/h 94% 0.00in /  0mm 0 W/m2
02:34 51.4 °F /  10.8 °C 49.8 °F /  9.9 °C 29.66in /  1004.3hPa SW 2.4mph /  3.9km/h 4mph /  6.4km/h 94% 0.00in /  0mm 0 W/m2
02:39 51.6 °F /  10.9 °C 50 °F /  10 °C 29.66in /  1004.3hPa SW 1.1mph /  1.8km/h 4mph /  6.4km/h 94% 0.00in /  0mm 0 W/m2
02:44 51.7 °F /  10.9 °C 50.1 °F /  10.1 °C 29.65in /  1003.9hPa SW 2mph /  3.2km/h 3mph /  4.8km/h 94% 0.00in /  0mm 0 W/m2
02:49 51.8 °F /  11 °C 50.2 °F /  10.1 °C 29.65in /  1003.9hPa SW 1.3mph /  2.1km/h 3mph /  4.8km/h 94% 0.00in /  0mm 0 W/m2
02:54 52 °F /  11.1 °C 50.4 °F /  10.2 °C 29.65in /  1003.9hPa SW 1.2mph /  1.9km/h 3mph /  4.8km/h 94% 0.00in /  0mm 0 W/m2
02:59 52.2 °F /  11.2 °C 50.5 °F /  10.3 °C 29.65in /  1003.9hPa SW 1.8mph /  2.9km/h 4mph /  6.4km/h 94% 0.00in /  0mm 0 W/m2
03:04 52.3 °F /  11.3 °C 50.7 °F /  10.4 °C 29.65in /  1003.9hPa Calm   4mph /  6.4km/h 94% 0.00in /  0mm 0 W/m2
03:09 52.3 °F /  11.3 °C 50.7 °F /  10.4 °C 29.64in /  1003.6hPa SW 0.8mph /  1.3km/h 4mph /  6.4km/h 94% 0.00in /  0mm 0 W/m2
03:14 52.5 °F /  11.4 °C 50.9 °F /  10.5 °C 29.64in /  1003.6hPa SW 0.8mph /  1.3km/h 3mph /  4.8km/h 94% 0.00in /  0mm 0 W/m2
03:19 52.6 °F /  11.4 °C 51 °F /  10.6 °C 29.64in /  1003.6hPa SW 2.1mph /  3.4km/h 3mph /  4.8km/h 94% 0.00in /  0mm 0 W/m2
03:24 53 °F /  11.7 °C 51.3 °F /  10.7 °C 29.63in /  1003.3hPa SW 0.8mph /  1.3km/h 3mph /  4.8km/h 94% 0.00in /  0mm 0 W/m2
03:29 53.1 °F /  11.7 °C 51.4 °F /  10.8 °C 29.63in /  1003.3hPa SW 0.2mph /  0.3km/h 3mph /  4.8km/h 94% 0.00in /  0mm 0 W/m2
03:34 53.1 °F /  11.7 °C 51.4 °F /  10.8 °C 29.63in /  1003.3hPa SW 0.2mph /  0.3km/h 1mph /  1.6km/h 94% 0.00in /  0mm 0 W/m2
03:39 53.1 °F /  11.7 °C 51.4 °F /  10.8 °C 29.63in /  1003.3hPa SW 0.9mph /  1.4km/h 3mph /  4.8km/h 94% 0.00in /  0mm 0 W/m2
03:44 53.1 °F /  11.7 °C 51.5 °F /  10.8 °C 29.63in /  1003.3hPa SW 0.2mph /  0.3km/h 2mph /  3.2km/h 94% 0.00in /  0mm 0 W/m2
03:49 53.2 °F /  11.8 °C 51.6 °F /  10.9 °C 29.62in /  1002.9hPa SW 0.9mph /  1.4km/h 3mph /  4.8km/h 94% 0.00in /  0mm 0 W/m2
03:54 53.4 °F /  11.9 °C 51.8 °F /  11 °C 29.62in /  1002.9hPa Calm   3mph /  4.8km/h 94% 0.00in /  0mm 0 W/m2
03:59 53.4 °F /  11.9 °C 51.8 °F /  11 °C 29.62in /  1002.9hPa South 0.6mph /  1km/h 4mph /  6.4km/h 94% 0.00in /  0mm 0 W/m2
04:04 53.4 °F /  11.9 °C 51.8 °F /  11 °C 29.62in /  1002.9hPa South 0.6mph /  1km/h 4mph /  6.4km/h 94% 0.00in /  0mm 0 W/m2
04:09 53.5 °F /  11.9 °C 51.9 °F /  11.1 °C 29.62in /  1002.9hPa South 1.4mph /  2.3km/h 3mph /  4.8km/h 94% 0.00in /  0mm 0 W/m2
04:14 53.8 °F /  12.1 °C 52.2 °F /  11.2 °C 29.62in /  1002.9hPa SSW 2.9mph /  4.7km/h 6mph /  9.7km/h 94% 0.00in /  0mm 0 W/m2
04:19 53.8 °F /  12.1 °C 52.2 °F /  11.2 °C 29.61in /  1002.6hPa Calm   1mph /  1.6km/h 94% 0.00in /  0mm 0 W/m2
04:24 53.8 °F /  12.1 °C 52.2 °F /  11.2 °C 29.61in /  1002.6hPa SSW 0.5mph /  0.8km/h 4mph /  6.4km/h 94% 0.00in /  0mm 0 W/m2
04:29 53.8 °F /  12.1 °C 51.8 °F /  11 °C 29.61in /  1002.6hPa SSW 1.5mph /  2.4km/h 4mph /  6.4km/h 93% 0.00in /  0mm 0 W/m2
04:34 54 °F /  12.2 °C 52.2 °F /  11.2 °C 29.61in /  1002.6hPa SSW 2mph /  3.2km/h 6mph /  9.7km/h 93.8% 0.00in /  0mm 0 W/m2
04:39 54.1 °F /  12.3 °C 52.3 °F /  11.3 °C 29.61in /  1002.6hPa SSW 3.5mph /  5.6km/h 8mph /  12.9km/h 93.4% 0.00in /  0mm 0 W/m2
04:44 54.2 °F /  12.3 °C 52.3 °F /  11.3 °C 29.61in /  1002.6hPa SW 4.6mph /  7.4km/h 8mph /  12.9km/h 93% 0.00in /  0mm 0 W/m2
04:49 54.4 °F /  12.4 °C 52.4 °F /  11.3 °C 29.61in /  1002.6hPa SSW 4.9mph /  7.9km/h 8mph /  12.9km/h 93% 0.00in /  0mm 0 W/m2
04:54 54.5 °F /  12.5 °C 52.5 °F /  11.4 °C 29.61in /  1002.6hPa SW 4.9mph /  7.9km/h 13mph /  20.9km/h 93% 0.00in /  0mm 0 W/m2
04:59 54.4 °F /  12.4 °C 52.4 °F /  11.3 °C 29.61in /  1002.6hPa SSW 4.4mph /  7.1km/h 13mph /  20.9km/h 93% 0.00in /  0mm 0 W/m2
05:04 54.3 °F /  12.4 °C 52.3 °F /  11.3 °C 29.61in /  1002.6hPa SW 4.1mph /  6.6km/h 8mph /  12.9km/h 93% 0.01in /  0.25mm 0 W/m2
05:09 54.1 °F /  12.3 °C 52.2 °F /  11.2 °C 29.61in /  1002.6hPa WSW 3.3mph /  5.3km/h 6mph /  9.7km/h 93% 0.02in /  0.51mm 0 W/m2
05:14 54.1 °F /  12.3 °C 52.2 °F /  11.2 °C 29.60in /  1002.3hPa WSW 2.1mph /  3.4km/h 7mph /  11.3km/h 93% 0.02in /  0.51mm 0 W/m2
05:19 54 °F /  12.2 °C 52 °F /  11.1 °C 29.60in /  1002.3hPa SW 3.3mph /  5.3km/h 7mph /  11.3km/h 93% 0.02in /  0.51mm 0 W/m2
05:24 54 °F /  12.2 °C 52 °F /  11.1 °C 29.60in /  1002.3hPa SW 4.1mph /  6.6km/h 7mph /  11.3km/h 93% 0.02in /  0.51mm 0 W/m2
05:29 54 °F /  12.2 °C 52 °F /  11.1 °C 29.60in /  1002.3hPa SW 2.6mph /  4.2km/h 4mph /  6.4km/h 93% 0.02in /  0.51mm 0 W/m2
05:34 53.9 °F /  12.2 °C 51.9 °F /  11.1 °C 29.60in /  1002.3hPa SW 2.9mph /  4.7km/h 5mph /  8km/h 93% 0.02in /  0.51mm 0 W/m2
05:39 53.8 °F /  12.1 °C 51.8 °F /  11 °C 29.60in /  1002.3hPa WSW 4.5mph /  7.2km/h 12mph /  19.3km/h 93% 0.02in /  0.51mm 0 W/m2
05:44 53.7 °F /  12.1 °C 51.7 °F /  10.9 °C 29.60in /  1002.3hPa SW 3.3mph /  5.3km/h 9mph /  14.5km/h 93% 0.02in /  0.51mm 0 W/m2
05:49 53.4 °F /  11.9 °C 51.4 °F /  10.8 °C 29.60in /  1002.3hPa WSW 3mph /  4.8km/h 5mph /  8km/h 93% 0.02in /  0.51mm 0 W/m2
05:54 53.2 °F /  11.8 °C 51.3 °F /  10.7 °C 29.61in /  1002.6hPa WSW 2.8mph /  4.5km/h 8mph /  12.9km/h 93% 0.02in /  0.51mm 0 W/m2
05:59 53.1 °F /  11.7 °C 51.1 °F /  10.6 °C 29.61in /  1002.6hPa WSW 2mph /  3.2km/h 6mph /  9.7km/h 93% 0.02in /  0.51mm 0 W/m2
06:04 53 °F /  11.7 °C 51 °F /  10.6 °C 29.60in /  1002.3hPa WSW 2.7mph /  4.3km/h 6mph /  9.7km/h 93% 0.02in /  0.51mm 0 W/m2
06:09 52.9 °F /  11.6 °C 50.9 °F /  10.5 °C 29.60in /  1002.3hPa WSW 0.9mph /  1.4km/h 4mph /  6.4km/h 93% 0.02in /  0.51mm 0 W/m2
06:14 52.6 °F /  11.4 °C 50.6 °F /  10.3 °C 29.60in /  1002.3hPa WSW 2.2mph /  3.5km/h 5mph /  8km/h 93% 0.01in /  0.25mm 0 W/m2
06:19 52.5 °F /  11.4 °C 50.5 °F /  10.3 °C 29.60in /  1002.3hPa West 2.8mph /  4.5km/h 6mph /  9.7km/h 93% 0.00in /  0mm 0 W/m2
06:24 52.3 °F /  11.3 °C 50.4 °F /  10.2 °C 29.60in /  1002.3hPa West 1.6mph /  2.6km/h 6mph /  9.7km/h 93% 0.00in /  0mm 0 W/m2
06:29 52.2 °F /  11.2 °C 50.2 °F /  10.1 °C 29.60in /  1002.3hPa West 2.1mph /  3.4km/h 6mph /  9.7km/h 93% 0.00in /  0mm 0 W/m2
06:34 52 °F /  11.1 °C 50 °F /  10 °C 29.60in /  1002.3hPa West 1.8mph /  2.9km/h 5mph /  8km/h 93% 0.00in /  0mm 0 W/m2
06:39 51.8 °F /  11 °C 49.8 °F /  9.9 °C 29.60in /  1002.3hPa WNW 1.2mph /  1.9km/h 3mph /  4.8km/h 93% 0.00in /  0mm 0 W/m2
06:44 51.6 °F /  10.9 °C 49.6 °F /  9.8 °C 29.60in /  1002.3hPa WNW 2.1mph /  3.4km/h 4mph /  6.4km/h 93% 0.00in /  0mm 0 W/m2
06:49 51.4 °F /  10.8 °C 49.4 °F /  9.7 °C 29.60in /  1002.3hPa WSW 0.8mph /  1.3km/h 4mph /  6.4km/h 93% 0.00in /  0mm 0 W/m2
06:54 51.3 °F /  10.7 °C 49.3 °F /  9.6 °C 29.60in /  1002.3hPa NW 1.6mph /  2.6km/h 4mph /  6.4km/h 93% 0.00in /  0mm 0 W/m2
06:59 51.2 °F /  10.7 °C 49.2 °F /  9.6 °C 29.60in /  1002.3hPa WNW 1.3mph /  2.1km/h 3mph /  4.8km/h 93% 0.00in /  0mm 0 W/m2
07:04 50.8 °F /  10.4 °C 48.8 °F /  9.3 °C 29.60in /  1002.3hPa WNW 0.8mph /  1.3km/h 3mph /  4.8km/h 93% 0.00in /  0mm 0 W/m2
07:09 50.5 °F /  10.3 °C 48.6 °F /  9.2 °C 29.60in /  1002.3hPa West 0.7mph /  1.1km/h 5mph /  8km/h 93% 0.00in /  0mm 0 W/m2
07:14 50.6 °F /  10.3 °C 48.7 °F /  9.3 °C 29.60in /  1002.3hPa SW 0.8mph /  1.3km/h 5mph /  8km/h 93% 0.00in /  0mm 0 W/m2
07:19 50.5 °F /  10.3 °C 48.6 °F /  9.2 °C 29.60in /  1002.3hPa SW 0.5mph /  0.8km/h 2mph /  3.2km/h 93% 0.00in /  0mm 0 W/m2
07:24 50.4 °F /  10.2 °C 48.4 °F /  9.1 °C 29.60in /  1002.3hPa SW 0.5mph /  0.8km/h 6mph /  9.7km/h 93% 0.00in /  0mm 0 W/m2
07:29 50.6 °F /  10.3 °C 48.6 °F /  9.2 °C 29.60in /  1002.3hPa SSW 1.1mph /  1.8km/h 5mph /  8km/h 93% 0.00in /  0mm 0 W/m2
07:34 50.7 °F /  10.4 °C 48.7 °F /  9.3 °C 29.60in /  1002.3hPa SW 1.7mph /  2.7km/h 6mph /  9.7km/h 93% 0.00in /  0mm 5 W/m2
07:39 50.7 °F /  10.4 °C 48.7 °F /  9.3 °C 29.60in /  1002.3hPa WSW 0.4mph /  0.6km/h 3mph /  4.8km/h 93% 0.00in /  0mm 7 W/m2
07:44 50.5 °F /  10.3 °C 48.6 °F /  9.2 °C 29.60in /  1002.3hPa WSW 1mph /  1.6km/h 2mph /  3.2km/h 93% 0.00in /  0mm 9 W/m2
07:49 50.4 °F /  10.2 °C 48.4 °F /  9.1 °C 29.60in /  1002.3hPa WSW 1.3mph /  2.1km/h 3mph /  4.8km/h 93% 0.00in /  0mm 11 W/m2
07:54 50.2 °F /  10.1 °C 48.2 °F /  9 °C 29.60in /  1002.3hPa WSW 1.9mph /  3.1km/h 4mph /  6.4km/h 93% 0.00in /  0mm 12 W/m2
07:59 50.3 °F /  10.2 °C 48.3 °F /  9.1 °C 29.60in /  1002.3hPa WSW 1.3mph /  2.1km/h 4mph /  6.4km/h 93% 0.00in /  0mm 16 W/m2
08:04 50.4 °F /  10.2 °C 48.4 °F /  9.1 °C 29.60in /  1002.3hPa SW 1.2mph /  1.9km/h 3mph /  4.8km/h 93% 0.00in /  0mm 18 W/m2
08:09 50.4 °F /  10.2 °C 48.4 °F /  9.1 °C 29.60in /  1002.3hPa Calm   3mph /  4.8km/h 93% 0.00in /  0mm 19 W/m2
08:14 50.5 °F /  10.3 °C 48.5 °F /  9.2 °C 29.60in /  1002.3hPa SW 2mph /  3.2km/h 7mph /  11.3km/h 93% 0.00in /  0mm 23 W/m2
08:19 50.8 °F /  10.4 °C 48.8 °F /  9.3 °C 29.60in /  1002.3hPa SW 2mph /  3.2km/h 6mph /  9.7km/h 93% 0.00in /  0mm 35 W/m2
08:24 51.3 °F /  10.7 °C 49.3 °F /  9.6 °C 29.60in /  1002.3hPa South 4mph /  6.4km/h 8mph /  12.9km/h 92.8% 0.00in /  0mm 40 W/m2
08:29 51.9 °F /  11.1 °C 49.6 °F /  9.8 °C 29.60in /  1002.3hPa SSW 5.3mph /  8.5km/h 12mph /  19.3km/h 92.2% 0.00in /  0mm 40 W/m2
08:34 52.3 °F /  11.3 °C 49.8 °F /  9.9 °C 29.60in /  1002.3hPa SW 4.8mph /  7.7km/h 11mph /  17.7km/h 91.4% 0.00in /  0mm 37 W/m2
08:39 52.6 °F /  11.4 °C 49.9 °F /  9.9 °C 29.60in /  1002.3hPa SW 6.6mph /  10.6km/h 13mph /  20.9km/h 90.4% 0.00in /  0mm 37 W/m2
08:44 53.1 °F /  11.7 °C 49.6 °F /  9.8 °C 29.59in /  1001.9hPa SSW 8.7mph /  14km/h 14mph /  22.5km/h 88% 0.00in /  0mm 46 W/m2
08:49 53.2 °F /  11.8 °C 49.1 °F /  9.5 °C 29.60in /  1002.3hPa SW 8.4mph /  13.5km/h 16mph /  25.7km/h 85.8% 0.00in /  0mm 86 W/m2
08:54 53.4 °F /  11.9 °C 49 °F /  9.4 °C 29.60in /  1002.3hPa SW 7mph /  11.3km/h 12mph /  19.3km/h 84.8% 0.00in /  0mm 88 W/m2
08:59 53.6 °F /  12 °C 48.8 °F /  9.3 °C 29.60in /  1002.3hPa SW 7.4mph /  11.9km/h 13mph /  20.9km/h 83.6% 0.00in /  0mm 76 W/m2
09:04 53.6 °F /  12 °C 48.6 °F /  9.2 °C 29.61in /  1002.6hPa SW 4.9mph /  7.9km/h 14mph /  22.5km/h 83% 0.00in /  0mm 113 W/m2
09:09 53.9 °F /  12.2 °C 48.8 °F /  9.3 °C 29.61in /  1002.6hPa SW 6.2mph /  10km/h 13mph /  20.9km/h 83% 0.00in /  0mm 134 W/m2
09:14 54.1 °F /  12.3 °C 48.7 °F /  9.3 °C 29.61in /  1002.6hPa SSW 7.2mph /  11.6km/h 13mph /  20.9km/h 82.2% 0.00in /  0mm 98 W/m2
09:19 54.1 °F /  12.3 °C 48.7 °F /  9.3 °C 29.61in /  1002.6hPa SW 10mph /  16.1km/h 16mph /  25.7km/h 82% 0.00in /  0mm 77 W/m2
09:24 54.1 °F /  12.3 °C 48.7 °F /  9.3 °C 29.61in /  1002.6hPa SW 12.8mph /  20.6km/h 20mph /  32.2km/h 82% 0.00in /  0mm 98 W/m2
09:29 54.1 °F /  12.3 °C 48.7 °F /  9.3 °C 29.61in /  1002.6hPa SW 7.4mph /  11.9km/h 20mph /  32.2km/h 82% 0.00in /  0mm 88 W/m2
09:34 54.1 °F /  12.3 °C 48.8 °F /  9.3 °C 29.62in /  1002.9hPa SSW 9.4mph /  15.1km/h 17mph /  27.4km/h 82.4% 0.00in /  0mm 95 W/m2
09:39 54.1 °F /  12.3 °C 49 °F /  9.4 °C 29.61in /  1002.6hPa SW 7.2mph /  11.6km/h 16mph /  25.7km/h 83% 0.00in /  0mm 169 W/m2
09:44 54.1 °F /  12.3 °C 49.5 °F /  9.7 °C 29.62in /  1002.9hPa SSW 8.8mph /  14.2km/h 15mph /  24.1km/h 84% 0.00in /  0mm 264 W/m2
09:49 54.2 °F /  12.3 °C 49.5 °F /  9.7 °C 29.62in /  1002.9hPa SW 12.3mph /  19.8km/h 16mph /  25.7km/h 84% 0.00in /  0mm 142 W/m2
09:54 54.1 °F /  12.3 °C 49.4 °F /  9.7 °C 29.62in /  1002.9hPa WSW 4.8mph /  7.7km/h 17mph /  27.4km/h 84% 0.00in /  0mm 139 W/m2
09:59 54 °F /  12.2 °C 49.3 °F /  9.6 °C 29.62in /  1002.9hPa SW 9.4mph /  15.1km/h 14mph /  22.5km/h 84% 0.00in /  0mm 102 W/m2
10:04 54 °F /  12.2 °C 49.3 °F /  9.6 °C 29.62in /  1002.9hPa SW 8.7mph /  14km/h 15mph /  24.1km/h 84% 0.00in /  0mm 176 W/m2
10:09 54 °F /  12.2 °C 49.1 °F /  9.5 °C 29.62in /  1002.9hPa SW 8.2mph /  13.2km/h 13mph /  20.9km/h 83.4% 0.00in /  0mm 183 W/m2
10:14 54.2 °F /  12.3 °C 49.2 °F /  9.6 °C 29.62in /  1002.9hPa WSW 5.3mph /  8.5km/h 12mph /  19.3km/h 83% 0.00in /  0mm 158 W/m2
10:19 54.4 °F /  12.4 °C 49.6 °F /  9.8 °C 29.62in /  1002.9hPa SW 6.1mph /  9.8km/h 14mph /  22.5km/h 83.6% 0.00in /  0mm 267 W/m2
10:24 54.8 °F /  12.7 °C 49.7 °F /  9.8 °C 29.62in /  1002.9hPa WSW 8.6mph /  13.8km/h 15mph /  24.1km/h 83% 0.00in /  0mm 178 W/m2
10:29 54.9 °F /  12.7 °C 49.8 °F /  9.9 °C 29.62in /  1002.9hPa West 7.4mph /  11.9km/h 16mph /  25.7km/h 83% 0.00in /  0mm 151 W/m2
10:34 55 °F /  12.8 °C 49.7 °F /  9.8 °C 29.62in /  1002.9hPa WSW 8.6mph /  13.8km/h 16mph /  25.7km/h 82.2% 0.00in /  0mm 178 W/m2
10:39 55.2 °F /  12.9 °C 49.8 °F /  9.9 °C 29.62in /  1002.9hPa SW 8mph /  12.9km/h 13mph /  20.9km/h 82% 0.00in /  0mm 348 W/m2
10:44 55.7 °F /  13.2 °C 50.3 °F /  10.2 °C 29.63in /  1003.3hPa SW 10.4mph /  16.7km/h 15mph /  24.1km/h 82% 0.00in /  0mm 346 W/m2
10:49 56 °F /  13.3 °C 50.4 °F /  10.2 °C 29.63in /  1003.3hPa SW 6.8mph /  10.9km/h 15mph /  24.1km/h 81.4% 0.00in /  0mm 399 W/m2
10:54 56.3 °F /  13.5 °C 50.9 °F /  10.5 °C 29.63in /  1003.3hPa SW 5.3mph /  8.5km/h 12mph /  19.3km/h 81.8% 0.00in /  0mm 399 W/m2
10:59 56.5 °F /  13.6 °C 51.1 °F /  10.6 °C 29.63in /  1003.3hPa SW 5.8mph /  9.3km/h 11mph /  17.7km/h 82% 0.00in /  0mm 227 W/m2
11:04 56.5 °F /  13.6 °C 51.1 °F /  10.6 °C 29.63in /  1003.3hPa SW 5mph /  8km/h 10mph /  16.1km/h 82% 0.00in /  0mm 260 W/m2
11:09 56.5 °F /  13.6 °C 51 °F /  10.6 °C 29.63in /  1003.3hPa SW 8.2mph /  13.2km/h 15mph /  24.1km/h 81.6% 0.00in /  0mm 202 W/m2
11:14 56.5 °F /  13.6 °C 50.7 °F /  10.4 °C 29.63in /  1003.3hPa WSW 6.3mph /  10.1km/h 13mph /  20.9km/h 81% 0.00in /  0mm 162 W/m2
11:19 56.5 °F /  13.6 °C 50.7 °F /  10.4 °C 29.63in /  1003.3hPa WSW 6.6mph /  10.6km/h 13mph /  20.9km/h 81% 0.00in /  0mm 267 W/m2
11:24 56.8 °F /  13.8 °C 51 °F /  10.6 °C 29.64in /  1003.6hPa WSW 5.7mph /  9.2km/h 9mph /  14.5km/h 81% 0.00in /  0mm 388 W/m2
11:29 57 °F /  13.9 °C 51.1 °F /  10.6 °C 29.63in /  1003.3hPa SW 6.6mph /  10.6km/h 12mph /  19.3km/h 80.4% 0.00in /  0mm 285 W/m2
11:34 57.2 °F /  14 °C 51 °F /  10.6 °C 29.64in /  1003.6hPa SW 8.5mph /  13.7km/h 13mph /  20.9km/h 79.8% 0.00in /  0mm 443 W/m2
11:39 57.4 °F /  14.1 °C 50.9 °F /  10.5 °C 29.64in /  1003.6hPa SSW 7.4mph /  11.9km/h 14mph /  22.5km/h 78.8% 0.00in /  0mm 378 W/m2
11:44 57.1 °F /  13.9 °C 50.3 °F /  10.2 °C 29.64in /  1003.6hPa SW 7.8mph /  12.6km/h 21mph /  33.8km/h 78% 0.00in /  0mm 330 W/m2
11:49 57.3 °F /  14.1 °C 50.4 °F /  10.2 °C 29.64in /  1003.6hPa WSW 9.3mph /  15km/h 13mph /  20.9km/h 78% 0.00in /  0mm 237 W/m2
11:54 57.4 °F /  14.1 °C 50.4 °F /  10.2 °C 29.64in /  1003.6hPa WSW 8mph /  12.9km/h 15mph /  24.1km/h 77.6% 0.00in /  0mm 343 W/m2
11:59 57.4 °F /  14.1 °C 50 °F /  10 °C 29.63in /  1003.3hPa SW 6.9mph /  11.1km/h 16mph /  25.7km/h 76.4% 0.00in /  0mm 209 W/m2
12:04 57.4 °F /  14.1 °C 49.8 °F /  9.9 °C 29.63in /  1003.3hPa SW 7.4mph /  11.9km/h 16mph /  25.7km/h 76% 0.00in /  0mm 445 W/m2
12:09 57.7 °F /  14.3 °C 49.8 °F /  9.9 °C 29.64in /  1003.6hPa SW 8.4mph /  13.5km/h 21mph /  33.8km/h 75% 0.00in /  0mm 441 W/m2
12:14 57.8 °F /  14.3 °C 49.6 °F /  9.8 °C 29.63in /  1003.3hPa WSW 8.8mph /  14.2km/h 16mph /  25.7km/h 74% 0.00in /  0mm 462 W/m2
12:19 58.2 °F /  14.6 °C 49.9 °F /  9.9 °C 29.63in /  1003.3hPa SW 8.2mph /  13.2km/h 16mph /  25.7km/h 74% 0.00in /  0mm 478 W/m2
12:24 58.7 °F /  14.8 °C 49.7 °F /  9.8 °C 29.63in /  1003.3hPa SW 6.6mph /  10.6km/h 14mph /  22.5km/h 72.2% 0.00in /  0mm 531 W/m2
12:29 59.2 °F /  15.1 °C 49.7 °F /  9.8 °C 29.63in /  1003.3hPa WSW 9.6mph /  15.4km/h 19mph /  30.6km/h 70.6% 0.00in /  0mm 557 W/m2
12:34 59.2 °F /  15.1 °C 49.6 °F /  9.8 °C 29.63in /  1003.3hPa WSW 11mph /  17.7km/h 20mph /  32.2km/h 70.4% 0.00in /  0mm 559 W/m2
12:39 59.8 °F /  15.4 °C 50.3 °F /  10.2 °C 29.63in /  1003.3hPa SW 6mph /  9.7km/h 17mph /  27.4km/h 70.8% 0.00in /  0mm 541 W/m2
12:44 59.7 °F /  15.4 °C 49.8 °F /  9.9 °C 29.63in /  1003.3hPa West 11.3mph /  18.2km/h 19mph /  30.6km/h 69.6% 0.00in /  0mm 552 W/m2
12:49 59 °F /  15 °C 48.9 °F /  9.4 °C 29.63in /  1003.3hPa WSW 9mph /  14.5km/h 19mph /  30.6km/h 69% 0.00in /  0mm 304 W/m2
12:54 58.6 °F /  14.8 °C 48.6 °F /  9.2 °C 29.63in /  1003.3hPa WSW 10mph /  16.1km/h 18mph /  29km/h 69% 0.00in /  0mm 237 W/m2
12:59 58.5 °F /  14.7 °C 48.8 °F /  9.3 °C 29.63in /  1003.3hPa West 10.8mph /  17.4km/h 17mph /  27.4km/h 70% 0.00in /  0mm 267 W/m2
13:04 58.6 °F /  14.8 °C 49.1 °F /  9.5 °C 29.64in /  1003.6hPa SW 8.2mph /  13.2km/h 16mph /  25.7km/h 70.6% 0.00in /  0mm 533 W/m2
13:09 59 °F /  15 °C 48.4 °F /  9.1 °C 29.63in /  1003.3hPa WSW 8.8mph /  14.2km/h 18mph /  29km/h 68% 0.00in /  0mm 529 W/m2
13:14 59 °F /  15 °C 47.9 °F /  8.8 °C 29.63in /  1003.3hPa WSW 9.2mph /  14.8km/h 18mph /  29km/h 66.6% 0.00in /  0mm 517 W/m2
13:19 58.3 °F /  14.6 °C 46.8 °F /  8.2 °C 29.63in /  1003.3hPa WSW 9.6mph /  15.4km/h 20mph /  32.2km/h 65.6% 0.00in /  0mm 311 W/m2
13:24 58 °F /  14.4 °C 47 °F /  8.3 °C 29.63in /  1003.3hPa WSW 8.6mph /  13.8km/h 18mph /  29km/h 67% 0.00in /  0mm 281 W/m2
13:29 57.9 °F /  14.4 °C 47.4 °F /  8.6 °C 29.63in /  1003.3hPa WSW 8.5mph /  13.7km/h 14mph /  22.5km/h 67.8% 0.00in /  0mm 461 W/m2
13:34 58.2 °F /  14.6 °C 47.8 °F /  8.8 °C 29.63in /  1003.3hPa WSW 7.2mph /  11.6km/h 14mph /  22.5km/h 68.2% 0.00in /  0mm 278 W/m2
13:39 58.4 °F /  14.7 °C 48.7 °F /  9.3 °C 29.63in /  1003.3hPa WSW 7.6mph /  12.2km/h 11mph /  17.7km/h 70.2% 0.00in /  0mm 244 W/m2
13:44 58.5 °F /  14.7 °C 49.3 °F /  9.6 °C 29.62in /  1002.9hPa SW 5.4mph /  8.7km/h 15mph /  24.1km/h 71.6% 0.00in /  0mm 279 W/m2
13:49 58.4 °F /  14.7 °C 49.7 °F /  9.8 °C 29.62in /  1002.9hPa WSW 5.7mph /  9.2km/h 15mph /  24.1km/h 72.8% 0.00in /  0mm 279 W/m2
13:54 58.4 °F /  14.7 °C 49.7 °F /  9.8 °C 29.62in /  1002.9hPa SW 6.2mph /  10km/h 15mph /  24.1km/h 72.8% 0.00in /  0mm 418 W/m2
13:59 58.6 °F /  14.8 °C 49.5 °F /  9.7 °C 29.62in /  1002.9hPa WSW 10.3mph /  16.6km/h 15mph /  24.1km/h 71.5% 0.00in /  0mm 501 W/m2
14:04 59.2 °F /  15.1 °C 49.6 °F /  9.8 °C 29.62in /  1002.9hPa SW 9.2mph /  14.8km/h 14mph /  22.5km/h 70.4% 0.00in /  0mm 501 W/m2
14:09 59.6 °F /  15.3 °C 49.7 °F /  9.8 °C 29.62in /  1002.9hPa SW 9.2mph /  14.8km/h 14mph /  22.5km/h 69.8% 0.00in /  0mm 461 W/m2
14:14 59.8 °F /  15.4 °C 49.4 °F /  9.7 °C 29.62in /  1002.9hPa WSW 7.8mph /  12.6km/h 15mph /  24.1km/h 68.4% 0.00in /  0mm 457 W/m2
14:19 60.1 °F /  15.6 °C 49.7 °F /  9.8 °C 29.62in /  1002.9hPa WSW 8.4mph /  13.5km/h 15mph /  24.1km/h 68.6% 0.00in /  0mm 461 W/m2
14:24 60.3 °F /  15.7 °C 49.6 °F /  9.8 °C 29.62in /  1002.9hPa WSW 8.6mph /  13.8km/h 15mph /  24.1km/h 68% 0.00in /  0mm 475 W/m2
14:29 60.5 °F /  15.8 °C 50 °F /  10 °C 29.61in /  1002.6hPa WSW 7mph /  11.3km/h 13mph /  20.9km/h 68.2% 0.00in /  0mm 415 W/m2
14:34 60.3 °F /  15.7 °C 49.4 °F /  9.7 °C 29.61in /  1002.6hPa WSW 8.4mph /  13.5km/h 18mph /  29km/h 67.2% 0.00in /  0mm 438 W/m2
14:39 60.3 °F /  15.7 °C 49.4 °F /  9.7 °C 29.61in /  1002.6hPa WSW 9mph /  14.5km/h 16mph /  25.7km/h 67.2% 0.00in /  0mm 302 W/m2
14:44 60.3 °F /  15.7 °C 49.4 °F /  9.7 °C 29.61in /  1002.6hPa WSW 9mph /  14.5km/h 19mph /  30.6km/h 67.6% 0.00in /  0mm 304 W/m2
14:49 60.2 °F /  15.7 °C 49.6 °F /  9.8 °C 29.61in /  1002.6hPa WSW 11.8mph /  19km/h 15mph /  24.1km/h 68.2% 0.00in /  0mm 480 W/m2
14:54 60.4 °F /  15.8 °C 49.7 °F /  9.8 °C 29.61in /  1002.6hPa SSW 10.8mph /  17.4km/h 16mph /  25.7km/h 67.8% 0.00in /  0mm 461 W/m2
14:59 60.1 °F /  15.6 °C 49.6 °F /  9.8 °C 29.60in /  1002.3hPa SW 10.4mph /  16.7km/h 19mph /  30.6km/h 68.4% 0.00in /  0mm 311 W/m2
15:04 60.1 °F /  15.6 °C 49.7 °F /  9.8 °C 29.60in /  1002.3hPa SSW 7.4mph /  11.9km/h 19mph /  30.6km/h 68.6% 0.00in /  0mm 427 W/m2
15:09 60.3 °F /  15.7 °C 49.1 °F /  9.5 °C 29.60in /  1002.3hPa SW 9.6mph /  15.4km/h 20mph /  32.2km/h 66.6% 0.00in /  0mm 374 W/m2
15:14 60.1 °F /  15.6 °C 48.5 °F /  9.2 °C 29.60in /  1002.3hPa SW 10.7mph /  17.2km/h 20mph /  32.2km/h 65.6% 0.00in /  0mm 165 W/m2
15:19 59.8 °F /  15.4 °C 48.3 °F /  9.1 °C 29.60in /  1002.3hPa SW 11.5mph /  18.5km/h 18mph /  29km/h 65.6% 0.00in /  0mm 369 W/m2
15:24 59.8 °F /  15.4 °C 48.5 °F /  9.2 °C 29.60in /  1002.3hPa SW 9.8mph /  15.8km/h 16mph /  25.7km/h 66.2% 0.00in /  0mm 353 W/m2
15:29 59.5 °F /  15.3 °C 48.5 °F /  9.2 °C 29.60in /  1002.3hPa SW 10.4mph /  16.7km/h 19mph /  30.6km/h 66.8% 0.00in /  0mm 267 W/m2
15:34 59.2 °F /  15.1 °C 48.5 °F /  9.2 °C 29.60in /  1002.3hPa SW 7.4mph /  11.9km/h 17mph /  27.4km/h 67.6% 0.00in /  0mm 295 W/m2
15:39 59.3 °F /  15.2 °C 48.8 °F /  9.3 °C 29.60in /  1002.3hPa SW 11.6mph /  18.7km/h 17mph /  27.4km/h 68.4% 0.00in /  0mm 336 W/m2
15:44 59.5 °F /  15.3 °C 49 °F /  9.4 °C 29.60in /  1002.3hPa SW 8.6mph /  13.8km/h 16mph /  25.7km/h 68.4% 0.00in /  0mm 313 W/m2
15:49 59.8 °F /  15.4 °C 49.4 °F /  9.7 °C 29.60in /  1002.3hPa SW 6mph /  9.7km/h 14mph /  22.5km/h 68.4% 0.00in /  0mm 316 W/m2
15:54 59.9 °F /  15.5 °C 49.3 °F /  9.6 °C 29.60in /  1002.3hPa SW 9mph /  14.5km/h 14mph /  22.5km/h 68% 0.00in /  0mm 294 W/m2
15:59 60.1 °F /  15.6 °C 49.3 °F /  9.6 °C 29.60in /  1002.3hPa SW 10mph /  16.1km/h 16mph /  25.7km/h 67.4% 0.00in /  0mm 279 W/m2
16:04 60.1 °F /  15.6 °C 49.1 °F /  9.5 °C 29.60in /  1002.3hPa SW 10.5mph /  16.9km/h 16mph /  25.7km/h 67% 0.00in /  0mm 260 W/m2
16:09 60.1 °F /  15.6 °C 49.1 °F /  9.5 °C 29.60in /  1002.3hPa SW 5.6mph /  9km/h 16mph /  25.7km/h 67.2% 0.00in /  0mm 248 W/m2
16:14 60 °F /  15.6 °C 49.2 °F /  9.6 °C 29.60in /  1002.3hPa SW 12mph /  19.3km/h 17mph /  27.4km/h 67.6% 0.00in /  0mm 241 W/m2
16:19 59.8 °F /  15.4 °C 48.8 °F /  9.3 °C 29.60in /  1002.3hPa SW 8.6mph /  13.8km/h 19mph /  30.6km/h 67% 0.00in /  0mm 181 W/m2
16:24 59.8 °F /  15.4 °C 48.5 °F /  9.2 °C 29.60in /  1002.3hPa SW 8.3mph /  13.4km/h 21mph /  33.8km/h 66% 0.00in /  0mm 88 W/m2
16:29 59.5 °F /  15.3 °C 48.1 °F /  8.9 °C 29.61in /  1002.6hPa SW 9.2mph /  14.8km/h 16mph /  25.7km/h 65.6% 0.00in /  0mm 202 W/m2
16:34 59.7 °F /  15.4 °C 48 °F /  8.9 °C 29.61in /  1002.6hPa SW 10mph /  16.1km/h 18mph /  29km/h 65% 0.00in /  0mm 207 W/m2
16:39 60.1 °F /  15.6 °C 48.4 °F /  9.1 °C 29.61in /  1002.6hPa SW 6mph /  9.7km/h 14mph /  22.5km/h 65.4% 0.00in /  0mm 193 W/m2
16:44 59.9 °F /  15.5 °C 48.2 °F /  9 °C 29.60in /  1002.3hPa SW 9.9mph /  15.9km/h 17mph /  27.4km/h 65.2% 0.00in /  0mm 162 W/m2
16:49 59.6 °F /  15.3 °C 48.3 °F /  9.1 °C 29.60in /  1002.3hPa SSW 6.8mph /  10.9km/h 18mph /  29km/h 66% 0.00in /  0mm 163 W/m2
16:54 59.5 °F /  15.3 °C 48.4 °F /  9.1 °C 29.60in /  1002.3hPa SW 9.8mph /  15.8km/h 17mph /  27.4km/h 66.4% 0.00in /  0mm 144 W/m2
16:59 59.3 °F /  15.2 °C 48.5 °F /  9.2 °C 29.60in /  1002.3hPa SW 8mph /  12.9km/h 17mph /  27.4km/h 67.6% 0.00in /  0mm 127 W/m2
17:04 59 °F /  15 °C 48.7 °F /  9.3 °C 29.60in /  1002.3hPa SSW 7.2mph /  11.6km/h 17mph /  27.4km/h 68.6% 0.00in /  0mm 125 W/m2
17:09 58.8 °F /  14.9 °C 49.2 °F /  9.6 °C 29.60in /  1002.3hPa SW 8.8mph /  14.2km/h 16mph /  25.7km/h 70.2% 0.00in /  0mm 100 W/m2
17:14 58.5 °F /  14.7 °C 49.1 °F /  9.5 °C 29.60in /  1002.3hPa SSW 9.2mph /  14.8km/h 14mph /  22.5km/h 71% 0.00in /  0mm 84 W/m2
17:19 58.3 °F /  14.6 °C 49.3 °F /  9.6 °C 29.60in /  1002.3hPa SW 6.2mph /  10km/h 12mph /  19.3km/h 72% 0.00in /  0mm 69 W/m2
17:24 58.3 °F /  14.6 °C 49.3 °F /  9.6 °C 29.60in /  1002.3hPa SW 7.4mph /  11.9km/h 14mph /  22.5km/h 72% 0.00in /  0mm 62 W/m2
17:29 58.1 °F /  14.5 °C 49.3 °F /  9.6 °C 29.60in /  1002.3hPa SW 6.7mph /  10.8km/h 13mph /  20.9km/h 72.4% 0.00in /  0mm 44 W/m2
17:34 57.9 °F /  14.4 °C 49.3 °F /  9.6 °C 29.61in /  1002.6hPa SW 5.4mph /  8.7km/h 11mph /  17.7km/h 73% 0.00in /  0mm 42 W/m2
17:39 57.8 °F /  14.3 °C 48.8 °F /  9.3 °C 29.61in /  1002.6hPa SW 8mph /  12.9km/h 12mph /  19.3km/h 72% 0.00in /  0mm 28 W/m2
17:44 57.7 °F /  14.3 °C 48.5 °F /  9.2 °C 29.61in /  1002.6hPa SW 5.6mph /  9km/h 14mph /  22.5km/h 71.4% 0.00in /  0mm 25 W/m2
17:49 57.6 °F /  14.2 °C 47.8 °F /  8.8 °C 29.61in /  1002.6hPa WSW 6.1mph /  9.8km/h 14mph /  22.5km/h 70% 0.00in /  0mm 19 W/m2
17:54 57.4 °F /  14.1 °C 47.7 °F /  8.7 °C 29.61in /  1002.6hPa SW 6mph /  9.7km/h 10mph /  16.1km/h 70% 0.00in /  0mm 18 W/m2
17:59 57.2 °F /  14 °C 47.5 °F /  8.6 °C 29.61in /  1002.6hPa SW 6mph /  9.7km/h 10mph /  16.1km/h 70% 0.00in /  0mm 18 W/m2
18:04 57 °F /  13.9 °C 47.3 °F /  8.5 °C 29.61in /  1002.6hPa SW 7mph /  11.3km/h 16mph /  25.7km/h 70% 0.00in /  0mm 16 W/m2
18:09 56.9 °F /  13.8 °C 47.6 °F /  8.7 °C 29.61in /  1002.6hPa SSW 3.9mph /  6.3km/h 11mph /  17.7km/h 71% 0.00in /  0mm 12 W/m2
18:14 56.6 °F /  13.7 °C 47.6 °F /  8.7 °C 29.61in /  1002.6hPa SSW 4.4mph /  7.1km/h 9mph /  14.5km/h 72% 0.00in /  0mm 9 W/m2
18:19 56.5 °F /  13.6 °C 48 °F /  8.9 °C 29.61in /  1002.6hPa SSW 3.8mph /  6.1km/h 9mph /  14.5km/h 73% 0.00in /  0mm 5 W/m2
18:24 56.1 °F /  13.4 °C 47.9 °F /  8.8 °C 29.61in /  1002.6hPa SSW 4.3mph /  6.9km/h 8mph /  12.9km/h 73.6% 0.00in /  0mm 0 W/m2
18:29 55.9 °F /  13.3 °C 48 °F /  8.9 °C 29.61in /  1002.6hPa SSW 3.3mph /  5.3km/h 8mph /  12.9km/h 74.6% 0.00in /  0mm 0 W/m2
18:34 55.8 °F /  13.2 °C 48.1 °F /  8.9 °C 29.62in /  1002.9hPa SSW 2.9mph /  4.7km/h 9mph /  14.5km/h 75.2% 0.00in /  0mm 0 W/m2
18:39 55.8 °F /  13.2 °C 48.4 °F /  9.1 °C 29.62in /  1002.9hPa SSW 6mph /  9.7km/h 12mph /  19.3km/h 76% 0.00in /  0mm 0 W/m2
18:44 55.8 °F /  13.2 °C 48 °F /  8.9 °C 29.62in /  1002.9hPa SW 6.4mph /  10.3km/h 10mph /  16.1km/h 75% 0.00in /  0mm 0 W/m2
18:49 55.8 °F /  13.2 °C 48 °F /  8.9 °C 29.62in /  1002.9hPa SW 3.8mph /  6.1km/h 9mph /  14.5km/h 75% 0.00in /  0mm 0 W/m2
18:54 55.5 °F /  13.1 °C 47.6 °F /  8.7 °C 29.62in /  1002.9hPa SSW 5.6mph /  9km/h 8mph /  12.9km/h 74.6% 0.00in /  0mm 0 W/m2
18:59 55.4 °F /  13 °C 47.3 °F /  8.5 °C 29.62in /  1002.9hPa SSW 4.7mph /  7.6km/h 10mph /  16.1km/h 74% 0.00in /  0mm 0 W/m2
19:04 55.2 °F /  12.9 °C 47.1 °F /  8.4 °C 29.62in /  1002.9hPa SW 5mph /  8km/h 9mph /  14.5km/h 74% 0.00in /  0mm 0 W/m2
19:09 55.1 °F /  12.8 °C 47.2 °F /  8.4 °C 29.62in /  1002.9hPa SSW 6mph /  9.7km/h 10mph /  16.1km/h 74.6% 0.00in /  0mm 0 W/m2
19:14 55 °F /  12.8 °C 47.3 °F /  8.5 °C 29.62in /  1002.9hPa SSW 5.3mph /  8.5km/h 10mph /  16.1km/h 75% 0.00in /  0mm 0 W/m2
19:19 55 °F /  12.8 °C 47.3 °F /  8.5 °C 29.62in /  1002.9hPa South 4.1mph /  6.6km/h 9mph /  14.5km/h 75% 0.00in /  0mm 0 W/m2
19:24 54.9 °F /  12.7 °C 47.2 °F /  8.4 °C 29.63in /  1003.3hPa SSW 4.2mph /  6.8km/h 8mph /  12.9km/h 75.2% 0.00in /  0mm 0 W/m2
19:29 54.9 °F /  12.7 °C 47.5 °F /  8.6 °C 29.63in /  1003.3hPa SW 5.8mph /  9.3km/h 12mph /  19.3km/h 76% 0.00in /  0mm 0 W/m2
19:34 54.9 °F /  12.7 °C 47.6 °F /  8.7 °C 29.63in /  1003.3hPa SSW 6.6mph /  10.6km/h 12mph /  19.3km/h 76% 0.00in /  0mm 0 W/m2
19:39 55 °F /  12.8 °C 47.7 °F /  8.7 °C 29.63in /  1003.3hPa SSW 5.5mph /  8.9km/h 12mph /  19.3km/h 76% 0.00in /  0mm 0 W/m2
19:44 55 °F /  12.8 °C 47.7 °F /  8.7 °C 29.63in /  1003.3hPa SSW 5.8mph /  9.3km/h 9mph /  14.5km/h 76% 0.00in /  0mm 0 W/m2
19:49 55 °F /  12.8 °C 47.7 °F /  8.7 °C 29.63in /  1003.3hPa SSW 5.7mph /  9.2km/h 11mph /  17.7km/h 76% 0.00in /  0mm 0 W/m2
19:54 55 °F /  12.8 °C 47.8 °F /  8.8 °C 29.63in /  1003.3hPa SSW 5.1mph /  8.2km/h 13mph /  20.9km/h 76.6% 0.00in /  0mm 0 W/m2
19:59 55 °F /  12.8 °C 47.9 °F /  8.8 °C 29.63in /  1003.3hPa SW 4.8mph /  7.7km/h 13mph /  20.9km/h 77% 0.00in /  0mm 0 W/m2
20:04 54.9 °F /  12.7 °C 48 °F /  8.9 °C 29.64in /  1003.6hPa SW 5.3mph /  8.5km/h 11mph /  17.7km/h 77.4% 0.00in /  0mm 0 W/m2
20:09 54.7 °F /  12.6 °C 48 °F /  8.9 °C 29.64in /  1003.6hPa SW 5.6mph /  9km/h 9mph /  14.5km/h 78% 0.00in /  0mm 0 W/m2
20:14 54.6 °F /  12.6 °C 47.9 °F /  8.8 °C 29.64in /  1003.6hPa SW 3.6mph /  5.8km/h 8mph /  12.9km/h 78% 0.00in /  0mm 0 W/m2
20:19 54.3 °F /  12.4 °C 47.7 °F /  8.7 °C 29.64in /  1003.6hPa SW 4mph /  6.4km/h 8mph /  12.9km/h 78% 0.00in /  0mm 0 W/m2
20:24 54.3 °F /  12.4 °C 47.7 °F /  8.7 °C 29.64in /  1003.6hPa SW 5.5mph /  8.9km/h 8mph /  12.9km/h 78% 0.00in /  0mm 0 W/m2
20:29 54.3 °F /  12.4 °C 47.7 °F /  8.7 °C 29.64in /  1003.6hPa SW 5.4mph /  8.7km/h 10mph /  16.1km/h 78% 0.00in /  0mm 0 W/m2
20:34 54.3 °F /  12.4 °C 47.7 °F /  8.7 °C 29.64in /  1003.6hPa SW 3.8mph /  6.1km/h 8mph /  12.9km/h 78% 0.00in /  0mm 0 W/m2
20:39 54.3 °F /  12.4 °C 47.7 °F /  8.7 °C 29.64in /  1003.6hPa SW 3.6mph /  5.8km/h 9mph /  14.5km/h 78% 0.00in /  0mm 0 W/m2
20:44 54.3 °F /  12.4 °C 47.7 °F /  8.7 °C 29.64in /  1003.6hPa SW 3.8mph /  6.1km/h 8mph /  12.9km/h 78% 0.00in /  0mm 0 W/m2
20:49 54.3 °F /  12.4 °C 47.7 °F /  8.7 °C 29.64in /  1003.6hPa SW 4mph /  6.4km/h 8mph /  12.9km/h 78% 0.00in /  0mm 0 W/m2
20:54 54.2 °F /  12.3 °C 47.9 °F /  8.8 °C 29.64in /  1003.6hPa SW 4.9mph /  7.9km/h 10mph /  16.1km/h 79% 0.00in /  0mm 0 W/m2
20:59 54.3 °F /  12.4 °C 48 °F /  8.9 °C 29.65in /  1003.9hPa SW 5.5mph /  8.9km/h 10mph /  16.1km/h 79% 0.00in /  0mm 0 W/m2
21:04 54.3 °F /  12.4 °C 47.9 °F /  8.8 °C 29.65in /  1003.9hPa SW 4.9mph /  7.9km/h 9mph /  14.5km/h 78.8% 0.00in /  0mm 0 W/m2
21:09 54.3 °F /  12.4 °C 47.9 °F /  8.8 °C 29.65in /  1003.9hPa SW 3.6mph /  5.8km/h 11mph /  17.7km/h 78.8% 0.00in /  0mm 0 W/m2
21:14 54.3 °F /  12.4 °C 48 °F /  8.9 °C 29.64in /  1003.6hPa SSW 3.7mph /  6km/h 7mph /  11.3km/h 79% 0.00in /  0mm 0 W/m2
21:19 54.3 °F /  12.4 °C 48 °F /  8.9 °C 29.64in /  1003.6hPa SSW 6mph /  9.7km/h 9mph /  14.5km/h 79% 0.00in /  0mm 0 W/m2
21:24 54.3 °F /  12.4 °C 48 °F /  8.9 °C 29.64in /  1003.6hPa SW 4.4mph /  7.1km/h 9mph /  14.5km/h 79% 0.00in /  0mm 0 W/m2
21:29 54.3 °F /  12.4 °C 48 °F /  8.9 °C 29.64in /  1003.6hPa SW 5.9mph /  9.5km/h 14mph /  22.5km/h 79% 0.00in /  0mm 0 W/m2
21:33 54.3 °F /  12.4 °C 48 °F /  8.9 °C 29.64in /  1003.6hPa SSW 3.7mph /  6km/h 9mph /  14.5km/h 79% 0.00in /  0mm 0 W/m2
21:39 54.3 °F /  12.4 °C 48 °F /  8.9 °C 29.64in /  1003.6hPa SSW 4.9mph /  7.9km/h 12mph /  19.3km/h 79% 0.00in /  0mm 0 W/m2
21:44 54.3 °F /  12.4 °C 48 °F /  8.9 °C 29.65in /  1003.9hPa SW 3.7mph /  6km/h 9mph /  14.5km/h 79% 0.00in /  0mm 0 W/m2
21:49 54.3 °F /  12.4 °C 48 °F /  8.9 °C 29.65in /  1003.9hPa SW 6mph /  9.7km/h 14mph /  22.5km/h 79% 0.00in /  0mm 0 W/m2
21:54 54.3 °F /  12.4 °C 48 °F /  8.9 °C 29.65in /  1003.9hPa WSW 8mph /  12.9km/h 15mph /  24.1km/h 79% 0.00in /  0mm 0 W/m2
21:59 54.5 °F /  12.5 °C 48.2 °F /  9 °C 29.65in /  1003.9hPa SW 7.2mph /  11.6km/h 16mph /  25.7km/h 79% 0.00in /  0mm 0 W/m2
22:04 54.5 °F /  12.5 °C 48.2 °F /  9 °C 29.65in /  1003.9hPa SW 5.8mph /  9.3km/h 12mph /  19.3km/h 79% 0.00in /  0mm 0 W/m2
22:09 54.5 °F /  12.5 °C 48 °F /  8.9 °C 29.65in /  1003.9hPa SW 9mph /  14.5km/h 19mph /  30.6km/h 78.6% 0.00in /  0mm 0 W/m2
22:14 54.7 °F /  12.6 °C 48 °F /  8.9 °C 29.65in /  1003.9hPa SW 8.4mph /  13.5km/h 16mph /  25.7km/h 78% 0.00in /  0mm 0 W/m2
22:19 54.6 °F /  12.6 °C 47.9 °F /  8.8 °C 29.65in /  1003.9hPa SW 7.5mph /  12.1km/h 14mph /  22.5km/h 78% 0.00in /  0mm 0 W/m2
22:24 54.5 °F /  12.5 °C 47.8 °F /  8.8 °C 29.66in /  1004.3hPa SSW 6.8mph /  10.9km/h 14mph /  22.5km/h 78% 0.00in /  0mm 0 W/m2
22:29 54.3 °F /  12.4 °C 47.7 °F /  8.7 °C 29.66in /  1004.3hPa SW 5.6mph /  9km/h 11mph /  17.7km/h 78% 0.00in /  0mm 0 W/m2
22:34 54.1 °F /  12.3 °C 47.5 °F /  8.6 °C 29.66in /  1004.3hPa SW 8mph /  12.9km/h 13mph /  20.9km/h 78% 0.00in /  0mm 0 W/m2
22:39 54.1 °F /  12.3 °C 47.5 °F /  8.6 °C 29.67in /  1004.6hPa SW 7.4mph /  11.9km/h 14mph /  22.5km/h 78% 0.00in /  0mm 0 W/m2
22:44 54 °F /  12.2 °C 47.3 °F /  8.5 °C 29.67in /  1004.6hPa SW 6.7mph /  10.8km/h 14mph /  22.5km/h 78% 0.00in /  0mm 0 W/m2
22:49 54 °F /  12.2 °C 47.3 °F /  8.5 °C 29.67in /  1004.6hPa SW 9.8mph /  15.8km/h 17mph /  27.4km/h 78% 0.00in /  0mm 0 W/m2
22:54 54 °F /  12.2 °C 47.3 °F /  8.5 °C 29.67in /  1004.6hPa WSW 7.1mph /  11.4km/h 16mph /  25.7km/h 78% 0.00in /  0mm 0 W/m2
22:59 54 °F /  12.2 °C 47.3 °F /  8.5 °C 29.67in /  1004.6hPa SW 9.6mph /  15.4km/h 15mph /  24.1km/h 78% 0.00in /  0mm 0 W/m2
23:04 54 °F /  12.2 °C 47.3 °F /  8.5 °C 29.67in /  1004.6hPa SW 7.6mph /  12.2km/h 19mph /  30.6km/h 78% 0.00in /  0mm 0 W/m2
23:09 53.8 °F /  12.1 °C 47.1 °F /  8.4 °C 29.67in /  1004.6hPa SW 7.6mph /  12.2km/h 16mph /  25.7km/h 78% 0.00in /  0mm 0 W/m2
23:14 53.7 °F /  12.1 °C 47 °F /  8.3 °C 29.67in /  1004.6hPa SW 7.9mph /  12.7km/h 14mph /  22.5km/h 78% 0.00in /  0mm 0 W/m2
23:19 53.5 °F /  11.9 °C 47.2 °F /  8.4 °C 29.67in /  1004.6hPa SSW 6.4mph /  10.3km/h 12mph /  19.3km/h 79% 0.00in /  0mm 0 W/m2
23:24 53.4 °F /  11.9 °C 47.1 °F /  8.4 °C 29.67in /  1004.6hPa SW 6.4mph /  10.3km/h 13mph /  20.9km/h 79% 0.00in /  0mm 0 W/m2
23:29 53.3 °F /  11.8 °C 47 °F /  8.3 °C 29.67in /  1004.6hPa SW 5.9mph /  9.5km/h 13mph /  20.9km/h 79% 0.00in /  0mm 0 W/m2
23:34 53.2 °F /  11.8 °C 46.9 °F /  8.3 °C 29.67in /  1004.6hPa SW 8.8mph /  14.2km/h 13mph /  20.9km/h 79% 0.00in /  0mm 0 W/m2
23:39 53.2 °F /  11.8 °C 46.9 °F /  8.3 °C 29.67in /  1004.6hPa SW 6.6mph /  10.6km/h 14mph /  22.5km/h 79% 0.00in /  0mm 0 W/m2
23:44 53.2 °F /  11.8 °C 46.9 °F /  8.3 °C 29.67in /  1004.6hPa SW 7mph /  11.3km/h 16mph /  25.7km/h 79% 0.00in /  0mm 0 W/m2
23:49 53.2 °F /  11.8 °C 46.9 °F /  8.3 °C 29.67in /  1004.6hPa SSW 7.1mph /  11.4km/h 12mph /  19.3km/h 79% 0.00in /  0mm 0 W/m2
23:54 53.2 °F /  11.8 °C 46.9 °F /  8.3 °C 29.67in /  1004.6hPa SW 7.6mph /  12.2km/h 12mph /  19.3km/h 79% 0.00in /  0mm 0 W/m2
23:59 53.2 °F /  11.8 °C 46.9 °F /  8.3 °C 29.67in /  1004.6hPa SW 7mph /  11.3km/h 13mph /  20.9km/h 79% 0.00in /  0mm 0 W/m2
Bath Spa Weather
Compliments of Weather Underground - 2 mb